createdAt,value
2019-02-06T04:01:46.504Z,-1.12
2019-02-06T04:02:46.823Z,-1.12
2019-02-06T04:03:47.322Z,-1.09
2019-02-06T04:04:47.526Z,-1.14
2019-02-06T04:05:47.891Z,-1.12
2019-02-06T04:06:55.098Z,-1.14
2019-02-06T04:07:48.986Z,-1.12
2019-02-06T04:08:47.831Z,-1.15
2019-02-06T04:09:46.489Z,-1.22
2019-02-06T04:10:46.209Z,-1.08
2019-02-06T04:11:46.791Z,-1.15
2019-02-06T04:12:47.083Z,-1.15
2019-02-06T04:13:46.589Z,-1.20
2019-02-06T04:14:47.248Z,-1.23
2019-02-06T04:15:46.953Z,-1.25
2019-02-06T04:16:49.250Z,-1.32
2019-02-06T04:17:47.406Z,-1.27
2019-02-06T04:18:47.488Z,-1.26
2019-02-06T04:19:47.638Z,-1.32
2019-02-06T04:20:47.784Z,-1.27
2019-02-06T04:21:48.910Z,-1.26
2019-02-06T04:22:48.120Z,-1.27
2019-02-06T04:23:48.743Z,-1.32
2019-02-06T04:24:51.526Z,-1.32
2019-02-06T04:25:48.442Z,-1.22
2019-02-06T04:26:48.580Z,-1.30
2019-02-06T04:27:48.690Z,-1.14
2019-02-06T04:28:49.022Z,-1.22
2019-02-06T04:29:49.141Z,-1.20
2019-02-06T04:30:49.298Z,-1.19
2019-02-06T04:31:49.459Z,-1.11
2019-02-06T04:32:49.584Z,-1.09
2019-02-06T04:33:49.814Z,-1.09
2019-02-06T04:34:49.894Z,-1.02
2019-02-06T04:35:50.011Z,-0.99
2019-02-06T04:36:50.206Z,-0.99
2019-02-06T04:37:50.371Z,-0.97
2019-02-06T04:38:50.663Z,-1.01
2019-02-06T04:39:50.781Z,-0.94
2019-02-06T04:40:50.897Z,-1.02
2019-02-06T04:41:51.001Z,-0.91
2019-02-06T04:42:51.203Z,-0.83
2019-02-06T04:43:51.333Z,-0.90
2019-02-06T04:44:51.539Z,-0.83
2019-02-06T04:45:51.577Z,-0.86
2019-02-06T04:46:51.896Z,-0.90
2019-02-06T04:47:52.034Z,-0.89
2019-02-06T04:48:52.277Z,-0.75
2019-02-06T04:49:52.462Z,-0.75
2019-02-06T04:50:52.650Z,-0.72
2019-02-06T04:51:52.744Z,-0.67
2019-02-06T04:52:53.032Z,-0.61
2019-02-06T04:53:53.136Z,-0.65
2019-02-06T04:54:53.425Z,-0.71
2019-02-06T04:55:53.426Z,-0.70
2019-02-06T04:56:53.746Z,-0.65
2019-02-06T04:57:54.009Z,-0.68
2019-02-06T04:58:54.008Z,-0.59
2019-02-06T04:59:54.187Z,-0.62
2019-02-06T05:00:54.328Z,-0.54
2019-02-06T05:01:54.563Z,-0.62
2019-02-06T05:02:54.730Z,-0.64
2019-02-06T05:03:54.783Z,-0.70
2019-02-06T05:04:55.064Z,-0.59
2019-02-06T05:05:55.203Z,-0.62
2019-02-06T05:06:55.369Z,-0.64
2019-02-06T05:07:55.599Z,-0.71
2019-02-06T05:08:55.649Z,-0.67
2019-02-06T05:09:55.826Z,-0.54
2019-02-06T05:10:55.942Z,-0.59
2019-02-06T05:11:56.212Z,-0.62
2019-02-06T05:12:56.340Z,-0.64
2019-02-06T05:13:56.529Z,-0.62
2019-02-06T05:14:56.717Z,-0.61
2019-02-06T05:15:57.886Z,-0.62
2019-02-06T05:16:57.108Z,-0.57
2019-02-06T05:17:57.342Z,-0.64
2019-02-06T05:18:57.391Z,-0.62
2019-02-06T05:19:57.577Z,-0.75
2019-02-06T05:20:57.816Z,-0.71
2019-02-06T05:21:57.971Z,-0.75
2019-02-06T05:22:58.215Z,-0.82
2019-02-06T05:23:58.525Z,-0.75
2019-02-06T05:24:58.562Z,-0.82
2019-02-06T05:25:58.617Z,-0.62
2019-02-06T05:26:59.042Z,-0.68
2019-02-06T05:27:59.092Z,-0.72
2019-02-06T05:28:59.199Z,-0.64
2019-02-06T05:29:59.435Z,-0.62
2019-02-06T05:30:59.495Z,-0.59
2019-02-06T05:31:59.636Z,-0.57
2019-02-06T05:32:59.845Z,-0.59
2019-02-06T05:33:59.978Z,-0.53
2019-02-06T05:35:00.012Z,-0.56
2019-02-06T05:36:00.358Z,-0.54
2019-02-06T05:37:00.611Z,-0.59
2019-02-06T05:38:00.716Z,-0.54
2019-02-06T05:39:00.958Z,-0.59
2019-02-06T05:40:01.105Z,-0.53
2019-02-06T05:41:01.304Z,-0.65
2019-02-06T05:42:01.407Z,-0.70
2019-02-06T05:43:01.739Z,-0.62
2019-02-06T05:44:01.762Z,-0.64
2019-02-06T05:45:02.603Z,-0.64
2019-02-06T05:46:02.607Z,-0.68
2019-02-06T05:47:02.810Z,-0.65
2019-02-06T05:48:02.810Z,-0.67
2019-02-06T05:49:02.831Z,-0.59
2019-02-06T05:50:03.216Z,-0.59
2019-02-06T05:51:03.286Z,-0.53
2019-02-06T05:52:03.324Z,-0.56
2019-02-06T05:53:03.520Z,-0.61
2019-02-06T05:54:03.902Z,-0.59
2019-02-06T05:55:04.657Z,-0.56
2019-02-06T05:56:04.165Z,-0.56
2019-02-06T05:57:04.874Z,-0.61
2019-02-06T05:58:04.443Z,-0.57
2019-02-06T05:59:04.848Z,-0.46
2019-02-06T06:00:04.633Z,-0.59
2019-02-06T06:01:05.065Z,-0.53
2019-02-06T06:02:04.927Z,-0.41
2019-02-06T06:03:05.044Z,-0.38
2019-02-06T06:04:05.302Z,-0.43
2019-02-06T06:05:05.366Z,-0.36
2019-02-06T06:06:05.777Z,-0.34
2019-02-06T06:07:14.800Z,-0.38
2019-02-06T06:08:06.707Z,-0.39
2019-02-06T06:09:06.075Z,-0.39
2019-02-06T06:10:06.201Z,-0.34
2019-02-06T06:11:17.591Z,-0.32
2019-02-06T06:12:07.790Z,-0.35
2019-02-06T06:13:07.713Z,-0.35
2019-02-06T06:14:07.023Z,-0.36
2019-02-06T06:15:07.091Z,-0.38
2019-02-06T06:16:07.339Z,-0.32
2019-02-06T06:17:07.428Z,-0.43
2019-02-06T06:18:07.567Z,-0.32
2019-02-06T06:19:08.267Z,-0.39
2019-02-06T06:20:08.011Z,-0.29
2019-02-06T06:21:08.989Z,-0.35
2019-02-06T06:22:09.027Z,-0.38
2019-02-06T06:23:09.005Z,-0.39
2019-02-06T06:24:09.257Z,-0.34
2019-02-06T06:25:08.910Z,-0.34
2019-02-06T06:26:08.974Z,-0.36
2019-02-06T06:27:09.132Z,-0.41
2019-02-06T06:28:09.291Z,-0.54
2019-02-06T06:29:09.492Z,-0.43
2019-02-06T06:30:10.783Z,-0.41
2019-02-06T06:31:10.875Z,-0.44
2019-02-06T06:32:10.126Z,-0.43
2019-02-06T06:33:13.056Z,-0.50
2019-02-06T06:34:10.399Z,-0.52
2019-02-06T06:35:10.402Z,-0.50
2019-02-06T06:36:10.550Z,-0.47
2019-02-06T06:37:10.737Z,-0.52
2019-02-06T06:38:10.745Z,-0.49
2019-02-06T06:39:10.875Z,-0.47
2019-02-06T06:40:11.071Z,-0.44
2019-02-06T06:41:11.242Z,-0.53
2019-02-06T06:42:11.324Z,-0.44
2019-02-06T06:43:11.515Z,-0.44
2019-02-06T06:44:11.649Z,-0.35
2019-02-06T06:45:11.851Z,-0.38
2019-02-06T06:46:11.956Z,-0.36
2019-02-06T06:47:12.149Z,-0.25
2019-02-06T06:48:12.298Z,-0.29
2019-02-06T06:49:12.472Z,-0.18
2019-02-06T06:50:12.669Z,-0.20
2019-02-06T06:51:12.738Z,-0.10
2019-02-06T06:52:12.936Z,-0.13
2019-02-06T06:53:13.119Z,-0.13
2019-02-06T06:54:13.218Z,-0.15
2019-02-06T06:55:13.362Z,-0.23
2019-02-06T06:56:13.520Z,-0.20
2019-02-06T06:57:13.736Z,-0.25
2019-02-06T06:58:13.948Z,-0.18
2019-02-06T06:59:14.001Z,-0.17
2019-02-06T07:00:14.214Z,-0.14
2019-02-06T07:01:14.406Z,-0.14
2019-02-06T07:02:14.557Z,-0.08
2019-02-06T07:03:15.270Z,-0.17
2019-02-06T07:04:14.871Z,-0.14
2019-02-06T07:05:15.392Z,-0.14
2019-02-06T07:06:15.132Z,-0.25
2019-02-06T07:07:15.257Z,-0.25
2019-02-06T07:08:16.524Z,-0.25
2019-02-06T07:09:15.579Z,-0.28
2019-02-06T07:10:15.795Z,-0.32
2019-02-06T07:11:16.631Z,-0.17
2019-02-06T07:12:16.091Z,-0.21
2019-02-06T07:13:16.245Z,-0.15
2019-02-06T07:14:16.377Z,-0.31
2019-02-06T07:15:16.648Z,-0.41
2019-02-06T07:16:16.837Z,-0.36
2019-02-06T07:17:16.915Z,-0.23
2019-02-06T07:18:17.078Z,-0.43
2019-02-06T07:19:17.301Z,-0.35
2019-02-06T07:20:17.480Z,-0.46
2019-02-06T07:21:17.538Z,-0.44
2019-02-06T07:22:17.736Z,-0.44
2019-02-06T07:23:17.849Z,-0.36
2019-02-06T07:24:17.943Z,-0.25
2019-02-06T07:25:18.092Z,-0.28
2019-02-06T07:26:18.333Z,-0.17
2019-02-06T07:27:21.014Z,-0.15
2019-02-06T07:28:18.654Z,-0.07
2019-02-06T07:29:18.758Z,-0.08
2019-02-06T07:30:18.946Z,0.01
2019-02-06T07:31:19.114Z,0.03
2019-02-06T07:32:19.236Z,0.01
2019-02-06T07:33:19.437Z,0.11
2019-02-06T07:34:19.624Z,0.04
2019-02-06T07:35:19.730Z,0.00
2019-02-06T07:36:19.869Z,0.00
2019-02-06T07:37:20.117Z,-0.02
2019-02-06T07:38:24.399Z,0.00
2019-02-06T07:39:20.379Z,-0.07
2019-02-06T07:40:20.482Z,-0.13
2019-02-06T07:41:20.603Z,-0.10
2019-02-06T07:42:21.039Z,-0.07
2019-02-06T07:43:21.651Z,-0.02
2019-02-06T07:44:21.701Z,0.07
2019-02-06T07:45:21.427Z,0.05
2019-02-06T07:46:21.447Z,0.08
2019-02-06T07:47:21.667Z,0.08
2019-02-06T07:48:21.862Z,0.11
2019-02-06T07:49:21.923Z,0.16
2019-02-06T07:50:22.101Z,0.25
2019-02-06T07:51:22.232Z,0.40
2019-02-06T07:52:22.469Z,0.50
2019-02-06T07:53:22.550Z,0.55
2019-02-06T07:54:23.530Z,0.58
2019-02-06T07:55:22.856Z,0.55
2019-02-06T07:56:23.050Z,0.58
2019-02-06T07:57:23.245Z,0.63
2019-02-06T07:58:23.466Z,0.49
2019-02-06T07:59:23.442Z,0.58
2019-02-06T08:00:23.628Z,0.46
2019-02-06T08:01:23.713Z,0.47
2019-02-06T08:02:23.956Z,0.65
2019-02-06T08:03:24.076Z,0.59
2019-02-06T08:04:24.324Z,0.69
2019-02-06T08:05:24.475Z,0.86
2019-02-06T08:06:24.660Z,0.87
2019-02-06T08:07:24.822Z,1.01
2019-02-06T08:08:35.349Z,1.02
2019-02-06T08:09:25.639Z,0.98
2019-02-06T08:10:25.187Z,1.14
2019-02-06T08:11:25.473Z,1.31
2019-02-06T08:12:26.144Z,1.26
2019-02-06T08:13:25.761Z,1.32
2019-02-06T08:14:25.908Z,1.38
2019-02-06T08:15:26.098Z,1.50
2019-02-06T08:16:26.303Z,1.45
2019-02-06T08:17:26.435Z,1.63
2019-02-06T08:18:26.628Z,1.76
2019-02-06T08:19:26.706Z,1.78
2019-02-06T08:20:26.900Z,1.78
2019-02-06T08:21:27.124Z,1.95
2019-02-06T08:22:27.177Z,1.94
2019-02-06T08:23:27.435Z,2.07
2019-02-06T08:24:27.638Z,2.10
2019-02-06T08:25:27.743Z,2.28
2019-02-06T08:26:27.920Z,2.39
2019-02-06T08:27:28.027Z,2.42
2019-02-06T08:28:28.242Z,2.53
2019-02-06T08:29:28.396Z,2.54
2019-02-06T08:30:28.597Z,2.67
2019-02-06T08:31:28.621Z,2.82
2019-02-06T08:32:28.805Z,2.75
2019-02-06T08:33:28.936Z,2.75
2019-02-06T08:34:29.081Z,2.79
2019-02-06T08:35:29.300Z,2.85
2019-02-06T08:36:29.550Z,2.89
2019-02-06T08:37:29.600Z,2.93
2019-02-06T08:38:29.733Z,3.00
2019-02-06T08:39:29.984Z,2.92
2019-02-06T08:40:30.073Z,3.05
2019-02-06T08:41:30.242Z,3.01
2019-02-06T08:42:30.438Z,3.04
2019-02-06T08:43:30.609Z,3.10
2019-02-06T08:44:30.736Z,3.36
2019-02-06T08:45:30.870Z,3.53
2019-02-06T08:46:31.029Z,3.58
2019-02-06T08:47:31.233Z,3.63
2019-02-06T08:48:31.322Z,3.68
2019-02-06T08:49:31.524Z,3.74
2019-02-06T08:50:31.659Z,3.76
2019-02-06T08:51:31.822Z,3.94
2019-02-06T08:52:31.954Z,4.16
2019-02-06T08:53:32.093Z,4.40
2019-02-06T08:54:32.270Z,4.08
2019-02-06T08:55:32.424Z,4.31
2019-02-06T08:56:32.600Z,4.66
2019-02-06T08:57:32.747Z,4.89
2019-02-06T08:58:32.919Z,5.15
2019-02-06T08:59:36.045Z,5.11
2019-02-06T09:00:33.210Z,5.33
2019-02-06T09:01:33.436Z,5.62
2019-02-06T09:02:33.569Z,5.76
2019-02-06T09:03:33.687Z,5.94
2019-02-06T09:04:34.720Z,6.22
2019-02-06T09:05:34.052Z,6.22
2019-02-06T09:06:34.207Z,6.11
2019-02-06T09:07:34.308Z,6.24
2019-02-06T09:08:34.575Z,6.31
2019-02-06T09:09:34.708Z,6.28
2019-02-06T09:10:34.841Z,6.46
2019-02-06T09:11:34.993Z,6.49
2019-02-06T09:12:35.163Z,6.84
2019-02-06T09:13:35.287Z,7.10
2019-02-06T09:14:35.467Z,7.06
2019-02-06T09:15:35.673Z,7.02
2019-02-06T09:16:35.714Z,7.10
2019-02-06T09:17:35.906Z,7.21
2019-02-06T09:18:36.110Z,7.24
2019-02-06T09:19:36.232Z,7.06
2019-02-06T09:20:36.422Z,7.23
2019-02-06T09:21:36.633Z,7.21
2019-02-06T09:22:36.760Z,7.25
2019-02-06T09:23:36.921Z,7.28
2019-02-06T09:24:37.073Z,7.24
2019-02-06T09:25:37.150Z,7.21
2019-02-06T09:26:37.411Z,7.40
2019-02-06T09:27:37.581Z,7.60
2019-02-06T09:28:37.729Z,7.54
2019-02-06T09:29:37.838Z,7.61
2019-02-06T09:30:38.054Z,7.85
2019-02-06T09:31:38.188Z,7.83
2019-02-06T09:32:38.318Z,8.05
2019-02-06T09:33:38.468Z,8.15
2019-02-06T09:34:38.605Z,8.05
2019-02-06T09:35:38.787Z,8.16
2019-02-06T09:36:39.023Z,8.48
2019-02-06T09:37:39.206Z,8.69
2019-02-06T09:38:39.344Z,8.92
2019-02-06T09:39:39.481Z,8.84
2019-02-06T09:40:39.640Z,9.22
2019-02-06T09:41:39.799Z,9.22
2019-02-06T09:42:39.998Z,8.97
2019-02-06T09:43:40.173Z,9.28
2019-02-06T09:44:40.368Z,9.46
2019-02-06T09:45:40.477Z,9.61
2019-02-06T09:46:40.674Z,9.74
2019-02-06T09:47:40.769Z,9.97
2019-02-06T09:48:41.010Z,10.05
2019-02-06T09:49:41.758Z,10.38
2019-02-06T09:50:41.346Z,10.68
2019-02-06T09:51:41.516Z,10.72
2019-02-06T09:52:41.790Z,10.84
2019-02-06T09:53:41.922Z,11.08
2019-02-06T09:54:42.082Z,11.15
2019-02-06T09:55:42.285Z,11.15
2019-02-06T09:56:43.257Z,11.12
2019-02-06T09:57:42.532Z,11.32
2019-02-06T09:58:42.720Z,11.33
2019-02-06T09:59:42.914Z,11.41
2019-02-06T10:00:43.055Z,11.35
2019-02-06T10:01:43.239Z,11.59
2019-02-06T10:02:43.352Z,11.65
2019-02-06T10:03:43.583Z,11.81
2019-02-06T10:04:43.736Z,12.07
2019-02-06T10:05:43.911Z,11.63
2019-02-06T10:06:44.099Z,11.30
2019-02-06T10:07:46.082Z,11.29
2019-02-06T10:08:44.395Z,11.57
2019-02-06T10:09:44.562Z,11.60
2019-02-06T10:10:44.769Z,11.72
2019-02-06T10:11:44.963Z,11.51
2019-02-06T10:12:45.031Z,11.26
2019-02-06T10:13:45.222Z,11.45
2019-02-06T10:14:45.350Z,11.29
2019-02-06T10:15:45.628Z,11.41
2019-02-06T10:16:45.650Z,11.52
2019-02-06T10:17:45.864Z,11.62
2019-02-06T10:18:46.003Z,11.48
2019-02-06T10:19:46.155Z,11.80
2019-02-06T10:20:46.319Z,12.07
2019-02-06T10:21:46.452Z,12.70
2019-02-06T10:22:47.162Z,12.83
2019-02-06T10:23:46.767Z,12.78
2019-02-06T10:24:46.993Z,12.67
2019-02-06T10:25:47.145Z,12.58
2019-02-06T10:26:47.366Z,12.67
2019-02-06T10:27:47.527Z,12.65
2019-02-06T10:28:47.671Z,13.19
2019-02-06T10:29:47.909Z,13.35
2019-02-06T10:30:48.028Z,13.35
2019-02-06T10:31:48.186Z,13.70
2019-02-06T10:32:48.330Z,13.75
2019-02-06T10:33:48.571Z,13.90
2019-02-06T10:34:48.680Z,13.72
2019-02-06T10:35:51.796Z,13.70
2019-02-06T10:36:49.035Z,13.99
2019-02-06T10:37:49.189Z,14.08
2019-02-06T10:38:49.349Z,14.03
2019-02-06T10:39:49.493Z,13.38
2019-02-06T10:40:49.720Z,13.42
2019-02-06T10:41:49.894Z,13.57
2019-02-06T10:42:50.030Z,13.46
2019-02-06T10:43:50.219Z,13.52
2019-02-06T10:44:50.430Z,13.18
2019-02-06T10:45:50.570Z,13.37
2019-02-06T10:46:50.702Z,13.57
2019-02-06T10:47:50.908Z,13.71
2019-02-06T10:48:51.071Z,13.59
2019-02-06T10:49:51.294Z,14.03
2019-02-06T10:50:51.423Z,14.41
2019-02-06T10:51:51.622Z,14.44
2019-02-06T10:52:51.725Z,14.29
2019-02-06T10:53:51.907Z,13.89
2019-02-06T10:54:52.117Z,13.99
2019-02-06T10:55:52.225Z,14.22
2019-02-06T10:56:52.452Z,14.30
2019-02-06T10:57:52.678Z,14.15
2019-02-06T10:58:52.809Z,14.20
2019-02-06T10:59:52.966Z,14.20
2019-02-06T11:00:53.147Z,13.87
2019-02-06T11:01:53.287Z,13.68
2019-02-06T11:02:53.454Z,13.42
2019-02-06T11:03:53.599Z,13.30
2019-02-06T11:04:53.829Z,12.85
2019-02-06T11:05:53.913Z,12.67
2019-02-06T11:06:54.120Z,12.68
2019-02-06T11:07:54.305Z,12.83
2019-02-06T11:08:54.413Z,12.61
2019-02-06T11:09:54.548Z,12.70
2019-02-06T11:10:54.770Z,12.82
2019-02-06T11:11:54.881Z,12.75
2019-02-06T11:12:55.070Z,12.36
2019-02-06T11:13:55.264Z,12.24
2019-02-06T11:14:55.440Z,11.94
2019-02-06T11:15:55.653Z,11.70
2019-02-06T11:16:55.735Z,11.90
2019-02-06T11:17:55.897Z,11.77
2019-02-06T11:18:56.031Z,11.62
2019-02-06T11:19:56.230Z,11.80
2019-02-06T11:20:56.350Z,12.00
2019-02-06T11:21:56.513Z,11.84
2019-02-06T11:22:56.676Z,11.66
2019-02-06T11:23:56.856Z,11.59
2019-02-06T11:24:57.081Z,11.63
2019-02-06T11:25:57.186Z,11.52
2019-02-06T11:26:57.353Z,11.63
2019-02-06T11:27:57.546Z,11.50
2019-02-06T11:28:57.683Z,11.57
2019-02-06T11:29:57.884Z,11.35
2019-02-06T11:30:58.138Z,11.08
2019-02-06T11:31:58.250Z,11.25
2019-02-06T11:32:58.421Z,11.62
2019-02-06T11:33:58.580Z,11.81
2019-02-06T11:34:58.741Z,11.97
2019-02-06T11:35:58.857Z,11.50
2019-02-06T11:36:59.011Z,11.26
2019-02-06T11:37:59.227Z,11.36
2019-02-06T11:38:59.403Z,11.63
2019-02-06T11:39:59.593Z,12.10
2019-02-06T11:40:59.690Z,12.15
2019-02-06T11:41:59.862Z,12.22
2019-02-06T11:43:00.088Z,12.53
2019-02-06T11:44:00.280Z,12.61
2019-02-06T11:45:00.520Z,12.40
2019-02-06T11:46:00.600Z,12.03
2019-02-06T11:47:00.766Z,12.35
2019-02-06T11:48:00.902Z,12.83
2019-02-06T11:49:01.035Z,13.18
2019-02-06T11:50:01.173Z,13.13
2019-02-06T11:51:01.336Z,13.46
2019-02-06T11:52:01.566Z,13.52
2019-02-06T11:53:02.354Z,13.57
2019-02-06T11:54:01.889Z,13.60
2019-02-06T11:55:01.987Z,13.87
2019-02-06T11:56:02.224Z,14.05
2019-02-06T11:57:02.366Z,14.17
2019-02-06T11:58:02.487Z,13.97
2019-02-06T11:59:02.753Z,14.17
2019-02-06T12:00:02.936Z,14.51
2019-02-06T12:01:03.048Z,14.54
2019-02-06T12:02:03.285Z,14.82
2019-02-06T12:03:03.456Z,15.03
2019-02-06T12:04:03.649Z,15.10
2019-02-06T12:05:03.769Z,15.19
2019-02-06T12:06:03.881Z,15.35
2019-02-06T12:07:04.132Z,15.47
2019-02-06T12:08:04.234Z,15.62
2019-02-06T12:09:04.483Z,15.82
2019-02-06T12:10:09.816Z,15.62
2019-02-06T12:11:04.740Z,15.67
2019-02-06T12:12:04.951Z,15.40
2019-02-06T12:13:05.155Z,15.55
2019-02-06T12:14:05.287Z,15.70
2019-02-06T12:15:05.440Z,15.98
2019-02-06T12:16:05.523Z,16.24
2019-02-06T12:17:05.778Z,16.24
2019-02-06T12:18:06.005Z,16.42
2019-02-06T12:19:06.065Z,16.38
2019-02-06T12:20:06.255Z,16.42
2019-02-06T12:21:06.432Z,16.47
2019-02-06T12:22:06.643Z,16.43
2019-02-06T12:23:06.795Z,16.50
2019-02-06T12:24:06.957Z,16.26
2019-02-06T12:25:07.088Z,16.05
2019-02-06T12:26:07.328Z,16.42
2019-02-06T12:27:07.495Z,16.26
2019-02-06T12:28:07.688Z,16.61
2019-02-06T12:29:07.823Z,16.53
2019-02-06T12:30:08.001Z,16.66
2019-02-06T12:31:08.189Z,16.99
2019-02-06T12:32:08.303Z,17.33
2019-02-06T12:33:08.528Z,17.19
2019-02-06T12:34:08.687Z,17.23
2019-02-06T12:35:08.924Z,17.30
2019-02-06T12:36:09.017Z,17.70
2019-02-06T12:37:09.195Z,17.59
2019-02-06T12:38:09.335Z,17.85
2019-02-06T12:39:09.536Z,17.71
2019-02-06T12:40:20.773Z,17.70
2019-02-06T12:41:09.845Z,17.27
2019-02-06T12:42:10.037Z,16.49
2019-02-06T12:43:10.916Z,15.84
2019-02-06T12:44:10.448Z,15.97
2019-02-06T12:45:10.616Z,16.13
2019-02-06T12:46:10.741Z,15.98
2019-02-06T12:47:11.109Z,16.20
2019-02-06T12:48:12.390Z,15.92
2019-02-06T12:49:14.416Z,15.57
2019-02-06T12:50:11.494Z,15.04
2019-02-06T12:51:11.589Z,14.47
2019-02-06T12:52:11.809Z,14.41
2019-02-06T12:53:12.073Z,14.65
2019-02-06T12:54:12.291Z,14.89
2019-02-06T12:55:12.330Z,14.62
2019-02-06T12:56:12.521Z,14.72
2019-02-06T12:57:12.807Z,14.47
2019-02-06T12:58:13.023Z,14.62
2019-02-06T12:59:13.122Z,15.06
2019-02-06T13:00:13.294Z,15.35
2019-02-06T13:01:13.479Z,15.39
2019-02-06T13:02:13.621Z,15.47
2019-02-06T13:03:13.789Z,15.76
2019-02-06T13:04:14.026Z,15.91
2019-02-06T13:05:14.153Z,15.29
2019-02-06T13:06:14.359Z,14.85
2019-02-06T13:07:14.579Z,15.14
2019-02-06T13:08:17.234Z,15.42
2019-02-06T13:09:14.877Z,15.77
2019-02-06T13:10:14.967Z,16.00
2019-02-06T13:11:15.186Z,15.98
2019-02-06T13:12:15.418Z,16.09
2019-02-06T13:13:15.584Z,16.35
2019-02-06T13:14:15.727Z,15.94
2019-02-06T13:15:15.936Z,16.01
2019-02-06T13:16:16.144Z,15.73
2019-02-06T13:17:16.326Z,15.75
2019-02-06T13:18:16.502Z,15.82
2019-02-06T13:19:16.563Z,15.67
2019-02-06T13:20:16.841Z,15.39
2019-02-06T13:21:16.914Z,14.92
2019-02-06T13:22:17.078Z,14.65
2019-02-06T13:23:17.343Z,14.60
2019-02-06T13:24:17.545Z,14.51
2019-02-06T13:25:17.596Z,14.78
2019-02-06T13:26:17.827Z,14.68
2019-02-06T13:27:17.856Z,14.53
2019-02-06T13:28:18.079Z,14.29
2019-02-06T13:29:18.290Z,14.29
2019-02-06T13:30:18.486Z,14.32
2019-02-06T13:31:18.607Z,14.37
2019-02-06T13:32:18.746Z,14.07
2019-02-06T13:33:18.902Z,14.07
2019-02-06T13:34:19.202Z,13.87
2019-02-06T13:35:19.341Z,13.97
2019-02-06T13:36:19.459Z,13.79
2019-02-06T13:37:19.887Z,13.86
2019-02-06T13:38:22.932Z,13.79
2019-02-06T13:39:19.953Z,13.96
2019-02-06T13:40:20.166Z,13.99
2019-02-06T13:41:20.324Z,14.00
2019-02-06T13:42:20.482Z,13.81
2019-02-06T13:43:20.657Z,13.81
2019-02-06T13:44:20.913Z,13.77
2019-02-06T13:45:20.952Z,13.81
2019-02-06T13:46:21.223Z,13.52
2019-02-06T13:47:21.368Z,13.38
2019-02-06T13:48:21.580Z,13.46
2019-02-06T13:49:21.776Z,13.23
2019-02-06T13:50:22.847Z,13.01
2019-02-06T13:51:22.196Z,13.15
2019-02-06T13:52:22.345Z,13.30
2019-02-06T13:53:22.476Z,13.23
2019-02-06T13:54:22.646Z,12.87
2019-02-06T13:55:22.873Z,12.40
2019-02-06T13:56:23.101Z,12.35
2019-02-06T13:57:33.422Z,12.37
2019-02-06T13:58:23.831Z,12.25
2019-02-06T13:59:23.526Z,12.21
2019-02-06T14:00:23.717Z,12.46
2019-02-06T14:01:25.861Z,12.54
2019-02-06T14:02:24.146Z,12.68
2019-02-06T14:03:24.170Z,12.93
2019-02-06T14:04:24.326Z,12.79
2019-02-06T14:05:24.557Z,12.93
2019-02-06T14:06:25.314Z,13.35
2019-02-06T14:07:24.985Z,13.72
2019-02-06T14:08:25.185Z,13.85
2019-02-06T14:09:26.146Z,14.15
2019-02-06T14:10:25.475Z,14.41
2019-02-06T14:11:25.625Z,14.59
2019-02-06T14:12:25.790Z,14.77
2019-02-06T14:13:25.914Z,14.48
2019-02-06T14:14:27.009Z,14.41
2019-02-06T14:15:26.282Z,14.22
2019-02-06T14:16:27.134Z,13.85
2019-02-06T14:17:26.628Z,13.74
2019-02-06T14:18:26.808Z,13.53
2019-02-06T14:19:26.976Z,13.28
2019-02-06T14:20:27.190Z,12.67
2019-02-06T14:21:27.292Z,12.45
2019-02-06T14:22:27.420Z,12.39
2019-02-06T14:23:27.622Z,12.29
2019-02-06T14:24:27.789Z,12.27
2019-02-06T14:25:27.980Z,12.37
2019-02-06T14:26:28.208Z,12.39
2019-02-06T14:27:28.860Z,12.20
2019-02-06T14:28:28.515Z,12.39
2019-02-06T14:29:28.618Z,12.36
2019-02-06T14:30:28.774Z,12.42
2019-02-06T14:31:29.007Z,12.18
2019-02-06T14:32:29.132Z,12.03
2019-02-06T14:33:29.211Z,12.07
2019-02-06T14:34:29.496Z,11.75
2019-02-06T14:35:29.603Z,11.78
2019-02-06T14:36:30.227Z,11.73
2019-02-06T14:37:29.976Z,11.68
2019-02-06T14:38:30.103Z,11.69
2019-02-06T14:39:30.276Z,11.78
2019-02-06T14:40:30.437Z,12.02
2019-02-06T14:41:30.641Z,12.32
2019-02-06T14:42:30.765Z,12.70
2019-02-06T14:43:30.912Z,13.11
2019-02-06T14:44:31.093Z,13.56
2019-02-06T14:45:31.265Z,13.83
2019-02-06T14:46:31.419Z,13.67
2019-02-06T14:47:31.544Z,13.65
2019-02-06T14:48:31.788Z,13.67
2019-02-06T14:49:31.911Z,13.56
2019-02-06T14:50:32.065Z,13.38
2019-02-06T14:51:32.277Z,13.56
2019-02-06T14:52:32.468Z,13.74
2019-02-06T14:53:32.634Z,13.56
2019-02-06T14:54:32.786Z,13.47
2019-02-06T14:55:32.965Z,13.54
2019-02-06T14:56:33.065Z,13.57
2019-02-06T14:57:33.281Z,13.85
2019-02-06T14:58:33.477Z,13.97
2019-02-06T14:59:33.511Z,13.93
2019-02-06T15:00:33.803Z,14.45
2019-02-06T15:01:33.890Z,14.58
2019-02-06T15:02:34.031Z,14.81
2019-02-06T15:03:34.304Z,14.62
2019-02-06T15:04:34.381Z,14.44
2019-02-06T15:05:34.532Z,14.10
2019-02-06T15:06:34.741Z,13.59
2019-02-06T15:07:34.892Z,13.23
2019-02-06T15:08:35.909Z,13.20
2019-02-06T15:09:35.209Z,12.90
2019-02-06T15:10:35.360Z,12.80
2019-02-06T15:11:35.538Z,12.85
2019-02-06T15:12:35.683Z,12.85
2019-02-06T15:13:35.944Z,12.82
2019-02-06T15:14:36.049Z,12.78
2019-02-06T15:15:36.202Z,12.85
2019-02-06T15:16:36.857Z,12.54
2019-02-06T15:17:36.534Z,12.46
2019-02-06T15:18:36.710Z,12.47
2019-02-06T15:19:36.957Z,12.40
2019-02-06T15:20:37.008Z,12.29
2019-02-06T15:21:37.248Z,11.91
2019-02-06T15:22:37.400Z,11.70
2019-02-06T15:23:37.535Z,11.55
2019-02-06T15:24:37.705Z,11.45
2019-02-06T15:25:37.876Z,11.05
2019-02-06T15:26:38.070Z,10.79
2019-02-06T15:27:38.914Z,10.82
2019-02-06T15:28:38.299Z,10.78
2019-02-06T15:29:38.455Z,10.63
2019-02-06T15:30:38.598Z,10.63
2019-02-06T15:31:38.769Z,10.81
2019-02-06T15:32:38.933Z,10.81
2019-02-06T15:33:39.108Z,10.81
2019-02-06T15:34:39.260Z,10.49
2019-02-06T15:35:39.418Z,10.38
2019-02-06T15:36:39.668Z,10.26
2019-02-06T15:37:39.741Z,10.02
2019-02-06T15:38:39.895Z,9.87
2019-02-06T15:39:40.089Z,9.92
2019-02-06T15:40:40.207Z,9.76
2019-02-06T15:41:40.504Z,9.56
2019-02-06T15:42:43.348Z,9.32
2019-02-06T15:43:40.783Z,9.19
2019-02-06T15:44:40.940Z,9.25
2019-02-06T15:45:41.072Z,9.06
2019-02-06T15:46:41.228Z,9.03
2019-02-06T15:47:41.459Z,9.02
2019-02-06T15:48:41.669Z,8.78
2019-02-06T15:49:41.724Z,8.69
2019-02-06T15:50:42.079Z,8.66
2019-02-06T15:51:42.111Z,8.58
2019-02-06T15:52:42.297Z,8.46
2019-02-06T15:53:42.423Z,8.48
2019-02-06T15:54:42.569Z,8.38
2019-02-06T15:55:42.768Z,8.27
2019-02-06T15:56:42.898Z,8.24
2019-02-06T15:57:43.125Z,8.05
2019-02-06T15:58:43.149Z,7.98
2019-02-06T15:59:44.537Z,7.90
2019-02-06T16:00:43.594Z,7.98
2019-02-06T16:01:43.934Z,7.82
2019-02-06T16:02:43.980Z,7.66
2019-02-06T16:03:44.049Z,7.60
2019-02-06T16:04:44.206Z,7.72
2019-02-06T16:05:44.662Z,7.66
2019-02-06T16:06:44.722Z,7.63
2019-02-06T16:07:44.833Z,7.63
2019-02-06T16:08:45.041Z,7.53
2019-02-06T16:09:45.184Z,7.47
2019-02-06T16:10:45.325Z,7.31
2019-02-06T16:11:45.417Z,7.25
2019-02-06T16:12:45.678Z,7.18
2019-02-06T16:13:45.753Z,7.20
2019-02-06T16:14:45.921Z,7.20
2019-02-06T16:15:46.065Z,7.18
2019-02-06T16:16:46.311Z,7.21
2019-02-06T16:17:46.462Z,7.02
2019-02-06T16:18:46.747Z,7.14
2019-02-06T16:19:46.920Z,7.00
2019-02-06T16:20:47.751Z,6.97
2019-02-06T16:21:53.220Z,6.81
2019-02-06T16:22:47.464Z,6.79
2019-02-06T16:23:47.553Z,6.60
2019-02-06T16:24:47.711Z,6.46
2019-02-06T16:25:47.853Z,6.38
2019-02-06T16:26:48.046Z,6.33
2019-02-06T16:27:48.943Z,6.45
2019-02-06T16:28:48.354Z,6.36
2019-02-06T16:29:59.893Z,6.35
2019-02-06T16:30:48.820Z,6.28
2019-02-06T16:31:48.978Z,6.24
2019-02-06T16:32:49.310Z,6.17
2019-02-06T16:33:49.200Z,6.11
2019-02-06T16:34:49.508Z,6.08
2019-02-06T16:35:49.754Z,6.09
2019-02-06T16:36:49.996Z,6.07
2019-02-06T16:37:49.989Z,5.94
2019-02-06T16:38:50.139Z,5.99
2019-02-06T16:39:50.308Z,5.82
2019-02-06T16:40:50.413Z,5.76
2019-02-06T16:41:53.413Z,5.73
2019-02-06T16:42:51.011Z,5.73
2019-02-06T16:43:51.052Z,5.75
2019-02-06T16:44:51.185Z,5.69
2019-02-06T16:45:51.364Z,5.68
2019-02-06T16:46:51.561Z,5.59
2019-02-06T16:47:51.882Z,5.64
2019-02-06T16:48:51.962Z,5.50
2019-02-06T16:49:52.157Z,5.61
2019-02-06T16:50:52.264Z,5.56
2019-02-06T16:51:52.922Z,5.53
2019-02-06T16:52:52.641Z,5.48
2019-02-06T16:53:52.743Z,5.41
2019-02-06T16:54:52.923Z,5.36
2019-02-06T16:55:53.019Z,5.38
2019-02-06T16:56:53.284Z,5.28
2019-02-06T16:57:53.378Z,5.33
2019-02-06T16:58:53.571Z,5.25
2019-02-06T16:59:53.661Z,5.30
2019-02-06T17:00:53.941Z,5.29
2019-02-06T17:01:54.116Z,5.20
2019-02-06T17:02:54.208Z,5.23